createdAt,value
2023-01-10T15:05:48.764Z,95273
2023-01-10T15:09:14.005Z,95263
2023-01-10T15:12:39.304Z,95270
2023-01-10T15:16:04.654Z,95273
2023-01-10T15:19:29.767Z,95273
2023-01-10T15:22:55.076Z,95279
2023-01-10T15:26:20.300Z,95277
2023-01-10T15:29:45.586Z,95278
2023-01-10T15:33:10.830Z,95278
2023-01-10T15:36:36.075Z,95273
2023-01-10T15:40:01.365Z,95271
2023-01-10T15:43:26.629Z,95260
2023-01-10T15:46:51.952Z,95254
2023-01-10T15:50:17.112Z,95256
2023-01-10T15:53:42.400Z,95247
2023-01-10T15:57:07.823Z,95253
2023-01-10T16:00:33.116Z,95256
2023-01-10T16:03:58.647Z,95258
2023-01-10T16:07:25.121Z,95259
2023-01-10T16:10:49.344Z,95251
2023-01-10T16:14:14.669Z,95252
2023-01-10T16:17:39.987Z,95243
2023-01-10T16:21:05.355Z,95236
2023-01-10T16:24:30.630Z,95256
2023-01-10T16:27:55.956Z,95241
2023-01-10T16:31:21.472Z,95243
2023-01-10T16:34:46.745Z,95246
2023-01-10T16:38:12.027Z,95234
2023-01-10T16:41:37.303Z,95234
2023-01-10T16:45:02.648Z,95240
2023-01-10T16:48:27.939Z,95241
2023-01-10T16:51:53.188Z,95234
2023-01-10T16:55:18.490Z,95228
2023-01-10T16:58:43.823Z,95230
2023-01-10T17:02:09.313Z,95227
2023-01-10T17:05:34.514Z,95221
2023-01-10T17:09:00.557Z,95235
2023-01-10T17:12:25.827Z,95233
2023-01-10T17:15:51.488Z,95230
2023-01-10T17:19:17.586Z,95228
2023-01-10T17:22:43.036Z,95224
2023-01-10T17:26:11.337Z,95220
2023-01-10T17:29:36.675Z,95223
2023-01-10T17:33:01.996Z,95223
2023-01-10T17:36:27.270Z,95211
2023-01-10T17:39:53.038Z,95210
2023-01-10T17:43:18.198Z,95203
2023-01-10T17:46:43.477Z,95204
2023-01-10T17:50:08.788Z,95203
2023-01-10T17:53:34.100Z,95205
2023-01-10T17:56:59.509Z,95198
2023-01-10T18:00:24.839Z,95199
2023-01-10T18:03:50.193Z,95204
2023-01-10T18:07:15.523Z,95207
2023-01-10T18:10:40.865Z,95207
2023-01-10T18:14:06.130Z,95210
2023-01-10T18:17:31.363Z,95212
2023-01-10T18:20:56.731Z,95204
2023-01-10T18:24:21.978Z,95202
2023-01-10T18:27:47.225Z,95201
2023-01-10T18:31:12.771Z,95195
2023-01-10T18:34:37.759Z,95193
2023-01-10T18:38:03.016Z,95187
2023-01-10T18:41:28.258Z,95177
2023-01-10T18:44:53.529Z,95173
2023-01-10T18:48:18.775Z,95174
2023-01-10T18:51:44.017Z,95167
2023-01-10T18:55:09.264Z,95159
2023-01-10T18:58:34.512Z,95154
2023-01-10T19:01:59.778Z,95144
2023-01-10T19:05:25.129Z,95139
2023-01-10T19:08:50.281Z,95143
2023-01-10T19:12:15.534Z,95140
2023-01-10T19:15:40.810Z,95139
2023-01-10T19:19:06.056Z,95135
2023-01-10T19:22:31.338Z,95133
2023-01-10T19:25:56.582Z,95136
2023-01-10T19:29:21.818Z,95128
2023-01-10T19:32:47.104Z,95122
2023-01-10T19:36:12.358Z,95121
2023-01-10T19:39:37.695Z,95122
2023-01-10T19:43:02.889Z,95116
2023-01-10T19:46:28.291Z,95120
2023-01-10T19:49:53.511Z,95112
2023-01-10T19:53:18.752Z,95095
2023-01-10T19:56:44.055Z,95100
2023-01-10T20:00:09.326Z,95086
2023-01-10T20:03:34.601Z,95090
2023-01-10T20:06:59.922Z,95091
2023-01-10T20:10:25.107Z,95084
2023-01-10T20:13:50.459Z,95093
2023-01-10T20:17:15.685Z,95089
2023-01-10T20:20:41.607Z,95079
2023-01-10T20:24:06.235Z,95071
2023-01-10T20:27:31.468Z,95076
2023-01-10T20:30:56.864Z,95076
2023-01-10T20:34:22.024Z,95059
2023-01-10T20:37:47.305Z,95061
2023-01-10T20:41:12.586Z,95068
2023-01-10T20:44:37.832Z,95065
2023-01-10T20:48:03.414Z,95065
2023-01-10T20:51:28.965Z,95074
2023-01-10T20:54:54.249Z,95068
2023-01-10T20:58:19.548Z,95044
2023-01-10T21:01:44.844Z,95056
2023-01-10T21:05:10.106Z,95037
2023-01-10T21:08:35.371Z,95036
2023-01-10T21:12:13.725Z,95041
2023-01-10T21:15:25.912Z,95044
2023-01-10T21:18:51.179Z,95031
2023-01-10T21:22:16.481Z,95027
2023-01-10T21:25:41.739Z,95039
2023-01-10T21:29:07.077Z,95024
2023-01-10T21:32:32.357Z,95019
2023-01-10T21:35:57.635Z,95007
2023-01-10T21:39:22.939Z,95005
2023-01-10T21:42:48.168Z,95007
2023-01-10T21:46:13.476Z,95000
2023-01-10T21:49:38.870Z,94996
2023-01-10T21:53:04.249Z,94995
2023-01-10T21:56:29.605Z,94993
2023-01-10T21:59:54.851Z,94993
2023-01-10T22:03:20.200Z,94985
2023-01-10T22:06:45.524Z,94978
2023-01-10T22:10:10.769Z,94961
2023-01-10T22:13:36.183Z,94963
2023-01-10T22:17:01.511Z,94957
2023-01-10T22:20:26.823Z,94944
2023-01-10T22:23:52.170Z,94956
2023-01-10T22:27:17.581Z,94944
2023-01-10T22:30:42.976Z,94940
2023-01-10T22:34:08.338Z,94950
2023-01-10T22:37:33.660Z,94950
2023-01-10T22:40:58.969Z,94943
2023-01-10T22:44:25.101Z,94947
2023-01-10T22:47:50.497Z,94949
2023-01-10T22:51:15.752Z,94942
2023-01-10T22:54:41.054Z,94932
2023-01-10T22:58:06.364Z,94934
2023-01-10T23:01:31.665Z,94942
2023-01-10T23:04:57.049Z,94952
2023-01-10T23:08:22.273Z,94939
2023-01-10T23:11:47.560Z,94932
2023-01-10T23:15:12.904Z,94928
2023-01-10T23:18:38.236Z,94927
2023-01-10T23:22:03.701Z,94928
2023-01-10T23:25:28.967Z,94924
2023-01-10T23:28:54.305Z,94929
2023-01-10T23:32:19.556Z,94938
2023-01-10T23:35:44.857Z,94918
2023-01-10T23:39:10.159Z,94911
2023-01-10T23:42:35.420Z,94903
2023-01-10T23:46:01.003Z,94898
2023-01-10T23:49:26.159Z,94909
2023-01-10T23:52:51.652Z,94909
2023-01-10T23:56:16.967Z,94905
2023-01-10T23:59:42.252Z,94908
